sensor_id;sensor_type;location;lat;lon;timestamp;P1;durP1;ratioP1;P2;durP2;ratioP2
7977;SDS011;4034;48.004;10.902;2022-08-14T00:01:20;3.10;;;2.90;;
7977;SDS011;4034;48.004;10.902;2022-08-14T00:03:46;3.80;;;2.90;;
7977;SDS011;4034;48.004;10.902;2022-08-14T00:06:12;5.30;;;3.70;;
7977;SDS011;4034;48.004;10.902;2022-08-14T00:08:38;3.37;;;3.03;;
7977;SDS011;4034;48.004;10.902;2022-08-14T00:11:04;2.80;;;2.60;;
7977;SDS011;4034;48.004;10.902;2022-08-14T00:13:30;3.30;;;3.13;;
7977;SDS011;4034;48.004;10.902;2022-08-14T00:15:57;3.13;;;2.93;;
7977;SDS011;4034;48.004;10.902;2022-08-14T00:18:24;4.23;;;2.90;;
7977;SDS011;4034;48.004;10.902;2022-08-14T00:20:50;2.93;;;2.73;;
7977;SDS011;4034;48.004;10.902;2022-08-14T00:23:17;4.80;;;3.10;;
7977;SDS011;4034;48.004;10.902;2022-08-14T00:25:45;2.87;;;2.77;;
7977;SDS011;4034;48.004;10.902;2022-08-14T00:28:12;4.20;;;3.10;;
7977;SDS011;4034;48.004;10.902;2022-08-14T00:30:39;4.00;;;3.60;;
7977;SDS011;4034;48.004;10.902;2022-08-14T00:33:06;4.00;;;3.80;;
7977;SDS011;4034;48.004;10.902;2022-08-14T00:35:32;3.50;;;3.40;;
7977;SDS011;4034;48.004;10.902;2022-08-14T00:37:58;6.60;;;4.13;;
7977;SDS011;4034;48.004;10.902;2022-08-14T00:40:24;3.60;;;3.40;;
7977;SDS011;4034;48.004;10.902;2022-08-14T00:42:50;3.83;;;3.63;;
7977;SDS011;4034;48.004;10.902;2022-08-14T00:45:16;4.23;;;3.47;;
7977;SDS011;4034;48.004;10.902;2022-08-14T00:47:43;3.97;;;3.27;;
7977;SDS011;4034;48.004;10.902;2022-08-14T00:50:10;3.03;;;2.83;;
7977;SDS011;4034;48.004;10.902;2022-08-14T00:52:36;3.30;;;3.20;;
7977;SDS011;4034;48.004;10.902;2022-08-14T00:55:04;3.40;;;3.20;;
7977;SDS011;4034;48.004;10.902;2022-08-14T00:57:31;3.20;;;3.00;;
7977;SDS011;4034;48.004;10.902;2022-08-14T00:59:57;3.70;;;3.50;;
7977;SDS011;4034;48.004;10.902;2022-08-14T01:02:24;3.83;;;3.53;;
7977;SDS011;4034;48.004;10.902;2022-08-14T01:04:51;3.53;;;3.33;;
7977;SDS011;4034;48.004;10.902;2022-08-14T01:07:18;3.70;;;3.40;;
7977;SDS011;4034;48.004;10.902;2022-08-14T01:09:58;3.60;;;3.40;;
7977;SDS011;4034;48.004;10.902;2022-08-14T01:12:29;3.20;;;3.03;;
7977;SDS011;4034;48.004;10.902;2022-08-14T01:14:57;4.17;;;3.80;;
7977;SDS011;4034;48.004;10.902;2022-08-14T01:17:24;4.23;;;3.30;;
7977;SDS011;4034;48.004;10.902;2022-08-14T01:20:09;4.73;;;3.60;;
7977;SDS011;4034;48.004;10.902;2022-08-14T01:22:54;3.80;;;3.50;;
7977;SDS011;4034;48.004;10.902;2022-08-14T01:25:20;3.70;;;3.50;;
7977;SDS011;4034;48.004;10.902;2022-08-14T01:27:46;3.60;;;3.40;;
7977;SDS011;4034;48.004;10.902;2022-08-14T01:30:12;4.30;;;3.93;;
7977;SDS011;4034;48.004;10.902;2022-08-14T01:32:38;3.80;;;3.60;;
7977;SDS011;4034;48.004;10.902;2022-08-14T01:35:05;3.97;;;3.67;;
7977;SDS011;4034;48.004;10.902;2022-08-14T01:37:32;3.07;;;2.97;;
7977;SDS011;4034;48.004;10.902;2022-08-14T01:39:58;3.90;;;3.60;;
7977;SDS011;4034;48.004;10.902;2022-08-14T01:42:25;4.20;;;3.90;;
7977;SDS011;4034;48.004;10.902;2022-08-14T01:44:53;3.67;;;3.50;;
7977;SDS011;4034;48.004;10.902;2022-08-14T01:47:21;3.10;;;2.97;;
7977;SDS011;4034;48.004;10.902;2022-08-14T01:49:48;3.90;;;3.70;;
7977;SDS011;4034;48.004;10.902;2022-08-14T01:52:14;3.83;;;3.60;;
7977;SDS011;4034;48.004;10.902;2022-08-14T01:54:41;3.60;;;3.47;;
7977;SDS011;4034;48.004;10.902;2022-08-14T01:57:07;4.03;;;3.83;;
7977;SDS011;4034;48.004;10.902;2022-08-14T01:59:35;4.60;;;4.20;;
7977;SDS011;4034;48.004;10.902;2022-08-14T02:02:03;8.03;;;4.10;;
7977;SDS011;4034;48.004;10.902;2022-08-14T02:04:36;3.87;;;3.53;;
7977;SDS011;4034;48.004;10.902;2022-08-14T02:07:02;4.07;;;3.80;;
7977;SDS011;4034;48.004;10.902;2022-08-14T02:09:28;4.73;;;4.43;;
7977;SDS011;4034;48.004;10.902;2022-08-14T02:11:59;4.20;;;4.00;;
7977;SDS011;4034;48.004;10.902;2022-08-14T02:14:25;7.00;;;3.57;;
7977;SDS011;4034;48.004;10.902;2022-08-14T02:16:51;3.80;;;3.50;;
7977;SDS011;4034;48.004;10.902;2022-08-14T02:19:18;3.67;;;3.47;;
7977;SDS011;4034;48.004;10.902;2022-08-14T02:21:45;4.00;;;3.80;;
7977;SDS011;4034;48.004;10.902;2022-08-14T02:24:13;3.40;;;3.30;;
7977;SDS011;4034;48.004;10.902;2022-08-14T02:26:40;4.00;;;3.80;;
7977;SDS011;4034;48.004;10.902;2022-08-14T02:29:08;4.23;;;3.60;;
7977;SDS011;4034;48.004;10.902;2022-08-14T02:31:35;4.43;;;4.13;;
7977;SDS011;4034;48.004;10.902;2022-08-14T02:34:05;4.07;;;3.87;;
7977;SDS011;4034;48.004;10.902;2022-08-14T02:36:32;4.00;;;3.77;;
7977;SDS011;4034;48.004;10.902;2022-08-14T02:38:58;4.10;;;3.90;;
7977;SDS011;4034;48.004;10.902;2022-08-14T02:41:24;4.93;;;4.63;;
7977;SDS011;4034;48.004;10.902;2022-08-14T02:43:50;5.33;;;4.00;;
7977;SDS011;4034;48.004;10.902;2022-08-14T02:46:16;4.17;;;3.87;;
7977;SDS011;4034;48.004;10.902;2022-08-14T02:48:43;6.83;;;3.93;;
7977;SDS011;4034;48.004;10.902;2022-08-14T02:51:12;3.80;;;3.67;;
7977;SDS011;4034;48.004;10.902;2022-08-14T02:53:40;3.73;;;3.50;;
7977;SDS011;4034;48.004;10.902;2022-08-14T02:56:07;4.93;;;3.80;;
7977;SDS011;4034;48.004;10.902;2022-08-14T02:58:36;5.40;;;5.00;;
7977;SDS011;4034;48.004;10.902;2022-08-14T03:01:03;3.90;;;3.70;;
7977;SDS011;4034;48.004;10.902;2022-08-14T03:03:29;3.97;;;3.77;;
7977;SDS011;4034;48.004;10.902;2022-08-14T03:05:55;5.00;;;4.70;;
7977;SDS011;4034;48.004;10.902;2022-08-14T03:08:22;4.13;;;3.80;;
7977;SDS011;4034;48.004;10.902;2022-08-14T03:10:55;3.90;;;3.70;;
7977;SDS011;4034;48.004;10.902;2022-08-14T03:13:21;4.70;;;4.30;;
7977;SDS011;4034;48.004;10.902;2022-08-14T03:15:48;3.90;;;3.70;;
7977;SDS011;4034;48.004;10.902;2022-08-14T03:18:16;4.30;;;3.93;;
7977;SDS011;4034;48.004;10.902;2022-08-14T03:20:42;4.30;;;3.90;;
7977;SDS011;4034;48.004;10.902;2022-08-14T03:23:08;4.23;;;4.03;;
7977;SDS011;4034;48.004;10.902;2022-08-14T03:25:35;4.83;;;3.57;;
7977;SDS011;4034;48.004;10.902;2022-08-14T03:28:02;4.20;;;4.00;;
7977;SDS011;4034;48.004;10.902;2022-08-14T03:30:29;4.00;;;3.73;;
7977;SDS011;4034;48.004;10.902;2022-08-14T03:32:56;3.73;;;3.53;;
7977;SDS011;4034;48.004;10.902;2022-08-14T03:35:22;4.57;;;4.30;;
7977;SDS011;4034;48.004;10.902;2022-08-14T03:37:49;5.20;;;4.13;;
7977;SDS011;4034;48.004;10.902;2022-08-14T03:40:17;4.13;;;3.87;;
7977;SDS011;4034;48.004;10.902;2022-08-14T03:42:43;4.23;;;4.03;;
7977;SDS011;4034;48.004;10.902;2022-08-14T03:45:08;5.27;;;4.87;;
7977;SDS011;4034;48.004;10.902;2022-08-14T03:47:34;5.53;;;5.13;;
7977;SDS011;4034;48.004;10.902;2022-08-14T03:50:05;5.97;;;5.47;;
7977;SDS011;4034;48.004;10.902;2022-08-14T03:52:33;6.10;;;5.70;;
7977;SDS011;4034;48.004;10.902;2022-08-14T03:55:00;5.97;;;5.57;;
7977;SDS011;4034;48.004;10.902;2022-08-14T03:57:27;5.80;;;5.40;;
7977;SDS011;4034;48.004;10.902;2022-08-14T03:59:56;8.13;;;5.40;;
7977;SDS011;4034;48.004;10.902;2022-08-14T04:02:23;4.90;;;4.30;;
7977;SDS011;4034;48.004;10.902;2022-08-14T04:04:49;5.10;;;4.70;;
7977;SDS011;4034;48.004;10.902;2022-08-14T04:07:17;5.33;;;4.93;;
7977;SDS011;4034;48.004;10.902;2022-08-14T04:09:43;4.50;;;4.23;;
7977;SDS011;4034;48.004;10.902;2022-08-14T04:12:09;5.60;;;5.10;;
7977;SDS011;4034;48.004;10.902;2022-08-14T04:14:35;4.50;;;4.30;;
7977;SDS011;4034;48.004;10.902;2022-08-14T04:17:01;5.40;;;4.90;;
7977;SDS011;4034;48.004;10.902;2022-08-14T04:19:28;4.70;;;4.40;;
7977;SDS011;4034;48.004;10.902;2022-08-14T04:21:54;5.23;;;4.93;;
7977;SDS011;4034;48.004;10.902;2022-08-14T04:24:21;6.03;;;5.63;;
7977;SDS011;4034;48.004;10.902;2022-08-14T04:26:47;5.00;;;4.70;;
7977;SDS011;4034;48.004;10.902;2022-08-14T04:29:14;5.77;;;5.40;;
7977;SDS011;4034;48.004;10.902;2022-08-14T04:31:40;5.70;;;5.30;;
7977;SDS011;4034;48.004;10.902;2022-08-14T04:34:06;5.33;;;5.00;;
7977;SDS011;4034;48.004;10.902;2022-08-14T04:36:32;5.53;;;4.87;;
7977;SDS011;4034;48.004;10.902;2022-08-14T04:39:18;6.17;;;5.57;;
7977;SDS011;4034;48.004;10.902;2022-08-14T04:42:03;6.23;;;5.83;;
7977;SDS011;4034;48.004;10.902;2022-08-14T04:44:48;5.33;;;4.93;;
7977;SDS011;4034;48.004;10.902;2022-08-14T04:47:14;5.33;;;4.67;;
7977;SDS011;4034;48.004;10.902;2022-08-14T04:50:00;3.93;;;3.73;;
7977;SDS011;4034;48.004;10.902;2022-08-14T04:52:27;5.53;;;5.13;;
7977;SDS011;4034;48.004;10.902;2022-08-14T04:54:54;5.67;;;5.17;;
7977;SDS011;4034;48.004;10.902;2022-08-14T04:57:21;4.60;;;4.30;;
7977;SDS011;4034;48.004;10.902;2022-08-14T04:59:48;4.90;;;4.50;;
7977;SDS011;4034;48.004;10.902;2022-08-14T05:02:16;5.10;;;4.70;;
7977;SDS011;4034;48.004;10.902;2022-08-14T05:04:42;4.40;;;3.93;;
7977;SDS011;4034;48.004;10.902;2022-08-14T05:07:08;5.33;;;4.83;;
7977;SDS011;4034;48.004;10.902;2022-08-14T05:09:34;5.17;;;4.87;;
7977;SDS011;4034;48.004;10.902;2022-08-14T05:12:01;4.33;;;4.13;;
7977;SDS011;4034;48.004;10.902;2022-08-14T05:14:27;4.27;;;4.07;;
7977;SDS011;4034;48.004;10.902;2022-08-14T05:16:53;4.43;;;4.07;;
7977;SDS011;4034;48.004;10.902;2022-08-14T05:19:22;4.23;;;3.93;;
7977;SDS011;4034;48.004;10.902;2022-08-14T05:21:51;4.13;;;3.93;;
7977;SDS011;4034;48.004;10.902;2022-08-14T05:24:20;4.00;;;3.80;;
7977;SDS011;4034;48.004;10.902;2022-08-14T05:26:46;4.27;;;3.87;;
7977;SDS011;4034;48.004;10.902;2022-08-14T05:29:12;4.70;;;4.40;;
7977;SDS011;4034;48.004;10.902;2022-08-14T05:31:38;4.47;;;4.20;;
7977;SDS011;4034;48.004;10.902;2022-08-14T05:34:05;4.43;;;4.23;;
7977;SDS011;4034;48.004;10.902;2022-08-14T05:36:32;3.90;;;3.70;;
7977;SDS011;4034;48.004;10.902;2022-08-14T05:38:58;4.03;;;3.63;;
7977;SDS011;4034;48.004;10.902;2022-08-14T05:41:24;4.67;;;3.80;;
7977;SDS011;4034;48.004;10.902;2022-08-14T05:43:51;3.90;;;3.70;;
7977;SDS011;4034;48.004;10.902;2022-08-14T05:46:18;4.00;;;3.80;;
7977;SDS011;4034;48.004;10.902;2022-08-14T05:48:48;7.07;;;3.70;;
7977;SDS011;4034;48.004;10.902;2022-08-14T05:51:14;3.20;;;3.00;;
7977;SDS011;4034;48.004;10.902;2022-08-14T05:53:41;3.30;;;3.20;;
7977;SDS011;4034;48.004;10.902;2022-08-14T05:56:07;3.87;;;3.67;;
7977;SDS011;4034;48.004;10.902;2022-08-14T05:58:33;5.60;;;3.70;;
7977;SDS011;4034;48.004;10.902;2022-08-14T06:00:59;4.13;;;3.83;;
7977;SDS011;4034;48.004;10.902;2022-08-14T06:03:25;3.43;;;3.13;;
7977;SDS011;4034;48.004;10.902;2022-08-14T06:05:53;3.00;;;2.83;;
7977;SDS011;4034;48.004;10.902;2022-08-14T06:08:20;3.17;;;2.97;;
7977;SDS011;4034;48.004;10.902;2022-08-14T06:10:47;2.90;;;2.80;;
7977;SDS011;4034;48.004;10.902;2022-08-14T06:13:13;3.60;;;3.30;;
7977;SDS011;4034;48.004;10.902;2022-08-14T06:15:39;3.10;;;3.00;;
7977;SDS011;4034;48.004;10.902;2022-08-14T06:18:06;2.90;;;2.80;;
7977;SDS011;4034;48.004;10.902;2022-08-14T06:20:32;2.77;;;2.67;;
7977;SDS011;4034;48.004;10.902;2022-08-14T06:22:58;3.30;;;3.10;;
7977;SDS011;4034;48.004;10.902;2022-08-14T06:25:24;3.57;;;2.77;;
7977;SDS011;4034;48.004;10.902;2022-08-14T06:27:52;2.60;;;2.50;;
7977;SDS011;4034;48.004;10.902;2022-08-14T06:30:19;3.20;;;2.90;;
7977;SDS011;4034;48.004;10.902;2022-08-14T06:32:45;3.30;;;3.00;;
7977;SDS011;4034;48.004;10.902;2022-08-14T06:35:12;2.57;;;2.47;;
7977;SDS011;4034;48.004;10.902;2022-08-14T06:37:57;2.70;;;2.50;;
7977;SDS011;4034;48.004;10.902;2022-08-14T06:40:25;2.60;;;2.50;;
7977;SDS011;4034;48.004;10.902;2022-08-14T06:42:52;2.70;;;2.60;;
7977;SDS011;4034;48.004;10.902;2022-08-14T06:45:18;2.60;;;2.50;;
7977;SDS011;4034;48.004;10.902;2022-08-14T06:47:45;2.70;;;2.60;;
7977;SDS011;4034;48.004;10.902;2022-08-14T06:50:16;3.63;;;2.83;;
7977;SDS011;4034;48.004;10.902;2022-08-14T06:52:42;2.50;;;2.40;;
7977;SDS011;4034;48.004;10.902;2022-08-14T06:55:10;2.77;;;2.60;;
7977;SDS011;4034;48.004;10.902;2022-08-14T06:57:40;2.70;;;2.60;;
7977;SDS011;4034;48.004;10.902;2022-08-14T07:00:08;2.77;;;2.57;;
7977;SDS011;4034;48.004;10.902;2022-08-14T07:02:34;2.57;;;2.47;;
7977;SDS011;4034;48.004;10.902;2022-08-14T07:05:19;2.23;;;2.13;;
7977;SDS011;4034;48.004;10.902;2022-08-14T07:08:03;2.60;;;2.50;;
7977;SDS011;4034;48.004;10.902;2022-08-14T07:10:29;2.67;;;2.47;;
7977;SDS011;4034;48.004;10.902;2022-08-14T07:12:55;3.07;;;2.43;;
7977;SDS011;4034;48.004;10.902;2022-08-14T07:15:22;2.43;;;2.33;;
7977;SDS011;4034;48.004;10.902;2022-08-14T07:17:48;2.20;;;2.10;;
7977;SDS011;4034;48.004;10.902;2022-08-14T07:20:15;2.40;;;2.30;;
7977;SDS011;4034;48.004;10.902;2022-08-14T07:22:45;2.50;;;2.40;;
7977;SDS011;4034;48.004;10.902;2022-08-14T07:25:11;2.30;;;2.10;;
7977;SDS011;4034;48.004;10.902;2022-08-14T07:27:38;2.03;;;2.03;;
7977;SDS011;4034;48.004;10.902;2022-08-14T07:30:04;2.40;;;2.30;;
7977;SDS011;4034;48.004;10.902;2022-08-14T07:32:30;2.17;;;2.07;;
7977;SDS011;4034;48.004;10.902;2022-08-14T07:34:56;1.70;;;1.70;;
7977;SDS011;4034;48.004;10.902;2022-08-14T07:37:22;2.00;;;1.90;;
7977;SDS011;4034;48.004;10.902;2022-08-14T07:39:48;2.20;;;2.00;;
7977;SDS011;4034;48.004;10.902;2022-08-14T07:42:15;1.90;;;1.90;;
7977;SDS011;4034;48.004;10.902;2022-08-14T07:44:41;2.20;;;2.10;;
7977;SDS011;4034;48.004;10.902;2022-08-14T07:47:07;2.70;;;1.70;;
7977;SDS011;4034;48.004;10.902;2022-08-14T07:49:33;2.30;;;2.10;;
7977;SDS011;4034;48.004;10.902;2022-08-14T07:52:00;2.73;;;1.90;;
7977;SDS011;4034;48.004;10.902;2022-08-14T07:54:27;1.83;;;1.80;;
7977;SDS011;4034;48.004;10.902;2022-08-14T07:56:54;1.87;;;1.70;;
7977;SDS011;4034;48.004;10.902;2022-08-14T07:59:19;1.63;;;1.63;;
7977;SDS011;4034;48.004;10.902;2022-08-14T08:01:48;2.60;;;1.80;;
7977;SDS011;4034;48.004;10.902;2022-08-14T08:04:14;1.80;;;1.80;;
7977;SDS011;4034;48.004;10.902;2022-08-14T08:06:40;3.20;;;1.70;;
7977;SDS011;4034;48.004;10.902;2022-08-14T08:09:06;1.90;;;1.73;;
7977;SDS011;4034;48.004;10.902;2022-08-14T08:11:35;1.83;;;1.73;;
7977;SDS011;4034;48.004;10.902;2022-08-14T08:14:04;2.07;;;1.97;;
7977;SDS011;4034;48.004;10.902;2022-08-14T08:16:31;1.87;;;1.77;;
7977;SDS011;4034;48.004;10.902;2022-08-14T08:18:58;1.80;;;1.73;;
7977;SDS011;4034;48.004;10.902;2022-08-14T08:21:24;1.70;;;1.60;;
7977;SDS011;4034;48.004;10.902;2022-08-14T08:23:50;1.93;;;1.83;;
7977;SDS011;4034;48.004;10.902;2022-08-14T08:26:18;1.53;;;1.53;;
7977;SDS011;4034;48.004;10.902;2022-08-14T08:28:53;1.97;;;1.87;;
7977;SDS011;4034;48.004;10.902;2022-08-14T08:31:20;3.60;;;2.33;;
7977;SDS011;4034;48.004;10.902;2022-08-14T08:33:49;1.87;;;1.80;;
7977;SDS011;4034;48.004;10.902;2022-08-14T08:36:16;2.57;;;2.00;;
7977;SDS011;4034;48.004;10.902;2022-08-14T08:55:45;1.67;;;1.60;;
7977;SDS011;4034;48.004;10.902;2022-08-14T08:58:13;1.50;;;1.50;;
7977;SDS011;4034;48.004;10.902;2022-08-14T09:00:40;1.70;;;1.60;;
7977;SDS011;4034;48.004;10.902;2022-08-14T09:03:07;1.43;;;1.43;;
7977;SDS011;4034;48.004;10.902;2022-08-14T09:05:34;3.97;;;1.57;;
7977;SDS011;4034;48.004;10.902;2022-08-14T09:08:11;1.60;;;1.50;;
7977;SDS011;4034;48.004;10.902;2022-08-14T09:10:37;1.43;;;1.43;;
7977;SDS011;4034;48.004;10.902;2022-08-14T09:13:03;1.60;;;1.60;;
7977;SDS011;4034;48.004;10.902;2022-08-14T09:15:29;1.80;;;1.50;;
7977;SDS011;4034;48.004;10.902;2022-08-14T09:17:56;1.63;;;1.50;;
7977;SDS011;4034;48.004;10.902;2022-08-14T09:20:22;2.20;;;2.00;;
7977;SDS011;4034;48.004;10.902;2022-08-14T09:22:48;1.93;;;1.83;;
7977;SDS011;4034;48.004;10.902;2022-08-14T09:25:15;1.60;;;1.50;;
7977;SDS011;4034;48.004;10.902;2022-08-14T09:27:42;1.43;;;1.43;;
7977;SDS011;4034;48.004;10.902;2022-08-14T09:30:08;1.50;;;1.50;;
7977;SDS011;4034;48.004;10.902;2022-08-14T09:32:45;2.00;;;1.90;;
7977;SDS011;4034;48.004;10.902;2022-08-14T09:35:20;1.67;;;1.65;;
7977;SDS011;4034;48.004;10.902;2022-08-14T09:42:48;1.55;;;1.55;;
7977;SDS011;4034;48.004;10.902;2022-08-14T09:45:19;1.48;;;1.42;;
7977;SDS011;4034;48.004;10.902;2022-08-14T09:47:49;1.70;;;1.65;;
7977;SDS011;4034;48.004;10.902;2022-08-14T09:52:51;3.67;;;1.70;;
7977;SDS011;4034;48.004;10.902;2022-08-14T09:55:18;1.33;;;1.33;;
7977;SDS011;4034;48.004;10.902;2022-08-14T09:57:45;1.92;;;1.83;;
7977;SDS011;4034;48.004;10.902;2022-08-14T10:00:11;1.67;;;1.58;;
7977;SDS011;4034;48.004;10.902;2022-08-14T10:02:53;1.50;;;1.50;;
7977;SDS011;4034;48.004;10.902;2022-08-14T10:05:31;1.25;;;1.23;;
7977;SDS011;4034;48.004;10.902;2022-08-14T10:07:58;1.20;;;1.20;;
7977;SDS011;4034;48.004;10.902;2022-08-14T10:12:53;1.80;;;1.70;;
7977;SDS011;4034;48.004;10.902;2022-08-14T10:15:20;1.52;;;1.48;;
7977;SDS011;4034;48.004;10.902;2022-08-14T10:17:47;1.40;;;1.40;;
7977;SDS011;4034;48.004;10.902;2022-08-14T10:20:14;1.40;;;1.40;;
7977;SDS011;4034;48.004;10.902;2022-08-14T10:22:45;1.25;;;1.17;;
7977;SDS011;4034;48.004;10.902;2022-08-14T10:25:11;1.60;;;1.60;;
7977;SDS011;4034;48.004;10.902;2022-08-14T10:27:41;1.40;;;1.38;;
7977;SDS011;4034;48.004;10.902;2022-08-14T10:30:12;1.02;;;1.02;;
7977;SDS011;4034;48.004;10.902;2022-08-14T10:32:44;1.63;;;1.52;;
7977;SDS011;4034;48.004;10.902;2022-08-14T10:35:11;1.23;;;1.23;;
7977;SDS011;4034;48.004;10.902;2022-08-14T10:37:38;1.40;;;1.40;;
7977;SDS011;4034;48.004;10.902;2022-08-14T10:40:05;2.17;;;1.20;;
7977;SDS011;4034;48.004;10.902;2022-08-14T10:42:35;1.30;;;1.20;;
7977;SDS011;4034;48.004;10.902;2022-08-14T10:45:02;1.20;;;1.20;;
7977;SDS011;4034;48.004;10.902;2022-08-14T10:47:34;1.13;;;1.05;;
7977;SDS011;4034;48.004;10.902;2022-08-14T10:50:02;1.75;;;1.25;;
7977;SDS011;4034;48.004;10.902;2022-08-14T10:52:29;1.52;;;1.10;;
7977;SDS011;4034;48.004;10.902;2022-08-14T10:55:10;1.10;;;1.10;;
7977;SDS011;4034;48.004;10.902;2022-08-14T10:57:49;1.20;;;1.10;;
7977;SDS011;4034;48.004;10.902;2022-08-14T11:00:17;1.63;;;1.52;;
7977;SDS011;4034;48.004;10.902;2022-08-14T11:02:43;1.10;;;1.10;;
7977;SDS011;4034;48.004;10.902;2022-08-14T11:05:14;1.27;;;1.17;;
7977;SDS011;4034;48.004;10.902;2022-08-14T11:07:53;1.33;;;1.33;;
7977;SDS011;4034;48.004;10.902;2022-08-14T11:10:19;2.72;;;1.50;;
7977;SDS011;4034;48.004;10.902;2022-08-14T11:12:47;1.25;;;1.15;;
7977;SDS011;4034;48.004;10.902;2022-08-14T11:15:18;1.20;;;1.00;;
7977;SDS011;4034;48.004;10.902;2022-08-14T11:17:45;1.05;;;1.05;;
7977;SDS011;4034;48.004;10.902;2022-08-14T11:20:12;1.17;;;1.17;;
7977;SDS011;4034;48.004;10.902;2022-08-14T11:22:38;1.15;;;1.15;;
7977;SDS011;4034;48.004;10.902;2022-08-14T11:25:05;1.20;;;1.20;;
7977;SDS011;4034;48.004;10.902;2022-08-14T11:27:32;1.20;;;1.20;;
7977;SDS011;4034;48.004;10.902;2022-08-14T11:30:06;1.63;;;1.40;;
7977;SDS011;4034;48.004;10.902;2022-08-14T11:32:32;1.98;;;1.35;;
7977;SDS011;4034;48.004;10.902;2022-08-14T11:35:00;1.48;;;1.38;;
7977;SDS011;4034;48.004;10.902;2022-08-14T11:37:27;1.00;;;1.00;;
7977;SDS011;4034;48.004;10.902;2022-08-14T11:39:54;2.33;;;1.20;;
7977;SDS011;4034;48.004;10.902;2022-08-14T11:42:21;1.13;;;1.13;;
7977;SDS011;4034;48.004;10.902;2022-08-14T11:44:48;1.00;;;1.00;;
7977;SDS011;4034;48.004;10.902;2022-08-14T11:47:14;1.65;;;0.93;;
7977;SDS011;4034;48.004;10.902;2022-08-14T11:49:46;1.52;;;1.42;;
7977;SDS011;4034;48.004;10.902;2022-08-14T11:52:13;1.48;;;1.40;;
7977;SDS011;4034;48.004;10.902;2022-08-14T11:54:39;1.10;;;1.10;;
7977;SDS011;4034;48.004;10.902;2022-08-14T11:57:12;1.30;;;1.20;;
7977;SDS011;4034;48.004;10.902;2022-08-14T11:59:38;1.30;;;1.30;;
7977;SDS011;4034;48.004;10.902;2022-08-14T12:02:14;1.45;;;1.42;;
7977;SDS011;4034;48.004;10.902;2022-08-14T12:04:50;1.20;;;1.20;;
7977;SDS011;4034;48.004;10.902;2022-08-14T12:07:17;1.33;;;1.33;;
7977;SDS011;4034;48.004;10.902;2022-08-14T12:09:44;1.40;;;1.30;;
7977;SDS011;4034;48.004;10.902;2022-08-14T12:12:17;1.52;;;1.20;;
7977;SDS011;4034;48.004;10.902;2022-08-14T12:14:47;1.42;;;1.42;;
7977;SDS011;4034;48.004;10.902;2022-08-14T12:17:13;1.27;;;1.27;;
7977;SDS011;4034;48.004;10.902;2022-08-14T12:19:46;1.17;;;1.17;;
7977;SDS011;4034;48.004;10.902;2022-08-14T12:22:13;1.30;;;1.30;;
7977;SDS011;4034;48.004;10.902;2022-08-14T12:24:41;2.05;;;1.40;;
7977;SDS011;4034;48.004;10.902;2022-08-14T12:27:08;1.13;;;1.10;;
7977;SDS011;4034;48.004;10.902;2022-08-14T12:29:34;1.40;;;1.30;;
7977;SDS011;4034;48.004;10.902;2022-08-14T12:32:01;1.85;;;1.30;;
7977;SDS011;4034;48.004;10.902;2022-08-14T12:34:31;1.70;;;1.70;;
7977;SDS011;4034;48.004;10.902;2022-08-14T12:37:03;1.35;;;1.35;;
7977;SDS011;4034;48.004;10.902;2022-08-14T12:39:30;1.63;;;1.30;;
7977;SDS011;4034;48.004;10.902;2022-08-14T12:41:57;1.42;;;1.38;;
7977;SDS011;4034;48.004;10.902;2022-08-14T12:44:31;1.35;;;1.27;;
7977;SDS011;4034;48.004;10.902;2022-08-14T12:47:02;1.35;;;1.35;;
7977;SDS011;4034;48.004;10.902;2022-08-14T12:49:29;2.67;;;1.40;;
7977;SDS011;4034;48.004;10.902;2022-08-14T12:51:58;1.48;;;1.38;;
7977;SDS011;4034;48.004;10.902;2022-08-14T12:54:24;1.23;;;1.20;;
7977;SDS011;4034;48.004;10.902;2022-08-14T12:57:01;1.85;;;1.20;;
7977;SDS011;4034;48.004;10.902;2022-08-14T12:59:30;2.83;;;1.40;;
7977;SDS011;4034;48.004;10.902;2022-08-14T13:01:59;1.40;;;1.30;;
7977;SDS011;4034;48.004;10.902;2022-08-14T13:04:26;1.40;;;1.40;;
7977;SDS011;4034;48.004;10.902;2022-08-14T13:07:00;1.20;;;1.20;;
7977;SDS011;4034;48.004;10.902;2022-08-14T13:09:31;1.90;;;1.40;;
7977;SDS011;4034;48.004;10.902;2022-08-14T13:11:57;1.70;;;1.55;;
7977;SDS011;4034;48.004;10.902;2022-08-14T13:14:26;1.25;;;1.25;;
7977;SDS011;4034;48.004;10.902;2022-08-14T13:16:55;1.40;;;1.40;;
7977;SDS011;4034;48.004;10.902;2022-08-14T13:19:22;1.75;;;1.65;;
7977;SDS011;4034;48.004;10.902;2022-08-14T13:21:49;2.50;;;1.67;;
7977;SDS011;4034;48.004;10.902;2022-08-14T13:24:17;1.45;;;1.45;;
7977;SDS011;4034;48.004;10.902;2022-08-14T13:26:45;1.52;;;1.50;;
7977;SDS011;4034;48.004;10.902;2022-08-14T13:29:14;1.40;;;1.30;;
7977;SDS011;4034;48.004;10.902;2022-08-14T13:31:43;1.60;;;1.45;;
7977;SDS011;4034;48.004;10.902;2022-08-14T13:34:11;1.48;;;1.48;;
7977;SDS011;4034;48.004;10.902;2022-08-14T13:36:37;1.70;;;1.70;;
7977;SDS011;4034;48.004;10.902;2022-08-14T13:39:04;1.77;;;1.67;;
7977;SDS011;4034;48.004;10.902;2022-08-14T13:41:30;1.70;;;1.60;;
7977;SDS011;4034;48.004;10.902;2022-08-14T13:43:57;1.83;;;1.73;;
7977;SDS011;4034;48.004;10.902;2022-08-14T13:46:23;1.87;;;1.77;;
7977;SDS011;4034;48.004;10.902;2022-08-14T13:48:49;1.80;;;1.70;;
7977;SDS011;4034;48.004;10.902;2022-08-14T13:51:16;1.67;;;1.57;;
7977;SDS011;4034;48.004;10.902;2022-08-14T13:53:46;1.50;;;1.47;;
7977;SDS011;4034;48.004;10.902;2022-08-14T13:56:13;1.70;;;1.60;;
7977;SDS011;4034;48.004;10.902;2022-08-14T13:58:43;3.80;;;1.67;;
7977;SDS011;4034;48.004;10.902;2022-08-14T14:01:15;3.03;;;1.60;;
7977;SDS011;4034;48.004;10.902;2022-08-14T14:03:42;1.53;;;1.50;;
7977;SDS011;4034;48.004;10.902;2022-08-14T14:06:10;1.77;;;1.30;;
7977;SDS011;4034;48.004;10.902;2022-08-14T14:08:39;2.10;;;1.53;;
7977;SDS011;4034;48.004;10.902;2022-08-14T14:11:09;1.53;;;1.50;;
7977;SDS011;4034;48.004;10.902;2022-08-14T14:13:35;1.40;;;1.40;;
7977;SDS011;4034;48.004;10.902;2022-08-14T14:16:03;1.60;;;1.50;;
7977;SDS011;4034;48.004;10.902;2022-08-14T14:18:32;1.43;;;1.40;;
7977;SDS011;4034;48.004;10.902;2022-08-14T14:20:59;1.53;;;1.43;;
7977;SDS011;4034;48.004;10.902;2022-08-14T14:23:26;1.50;;;1.40;;
7977;SDS011;4034;48.004;10.902;2022-08-14T14:25:53;1.90;;;1.50;;
7977;SDS011;4034;48.004;10.902;2022-08-14T14:28:19;2.00;;;1.63;;
7977;SDS011;4034;48.004;10.902;2022-08-14T14:30:46;1.50;;;1.50;;
7977;SDS011;4034;48.004;10.902;2022-08-14T14:33:13;2.73;;;1.70;;
7977;SDS011;4034;48.004;10.902;2022-08-14T14:35:43;1.60;;;1.60;;
7977;SDS011;4034;48.004;10.902;2022-08-14T14:38:13;2.60;;;1.67;;
7977;SDS011;4034;48.004;10.902;2022-08-14T14:40:40;1.73;;;1.73;;
7977;SDS011;4034;48.004;10.902;2022-08-14T14:43:08;1.60;;;1.60;;
7977;SDS011;4034;48.004;10.902;2022-08-14T14:45:36;2.43;;;1.63;;
7977;SDS011;4034;48.004;10.902;2022-08-14T14:48:02;1.30;;;1.30;;
7977;SDS011;4034;48.004;10.902;2022-08-14T14:50:31;1.60;;;1.50;;
7977;SDS011;4034;48.004;10.902;2022-08-14T14:52:57;2.73;;;1.60;;
7977;SDS011;4034;48.004;10.902;2022-08-14T14:55:23;1.63;;;1.60;;
7977;SDS011;4034;48.004;10.902;2022-08-14T14:57:51;1.60;;;1.60;;
7977;SDS011;4034;48.004;10.902;2022-08-14T15:00:18;3.10;;;1.43;;
7977;SDS011;4034;48.004;10.902;2022-08-14T15:02:49;1.60;;;1.60;;
7977;SDS011;4034;48.004;10.902;2022-08-14T15:05:16;1.57;;;1.53;;
7977;SDS011;4034;48.004;10.902;2022-08-14T15:07:42;1.77;;;1.67;;
7977;SDS011;4034;48.004;10.902;2022-08-14T15:10:10;1.57;;;1.57;;
7977;SDS011;4034;48.004;10.902;2022-08-14T15:12:36;3.03;;;1.80;;
7977;SDS011;4034;48.004;10.902;2022-08-14T15:15:03;1.47;;;1.40;;
7977;SDS011;4034;48.004;10.902;2022-08-14T15:17:29;1.43;;;1.43;;
7977;SDS011;4034;48.004;10.902;2022-08-14T15:20:10;1.63;;;1.63;;
7977;SDS011;4034;48.004;10.902;2022-08-14T15:22:36;1.70;;;1.60;;
7977;SDS011;4034;48.004;10.902;2022-08-14T15:25:03;1.60;;;1.40;;
7977;SDS011;4034;48.004;10.902;2022-08-14T15:27:30;1.87;;;1.77;;
7977;SDS011;4034;48.004;10.902;2022-08-14T15:29:56;2.40;;;1.63;;
7977;SDS011;4034;48.004;10.902;2022-08-14T15:32:22;1.70;;;1.60;;